sensor_id;sensor_type;location;lat;lon;timestamp;P1;durP1;ratioP1;P2;durP2;ratioP2
59770;SDS011;45649;53.014;6.600;2023-05-10T00:00:42;6.93;;;6.40;;
59770;SDS011;45649;53.014;6.600;2023-05-10T00:03:08;8.10;;;7.37;;
59770;SDS011;45649;53.014;6.600;2023-05-10T00:05:34;7.43;;;6.93;;
59770;SDS011;45649;53.014;6.600;2023-05-10T00:08:00;7.27;;;6.73;;
59770;SDS011;45649;53.014;6.600;2023-05-10T00:10:26;7.60;;;7.10;;
59770;SDS011;45649;53.014;6.600;2023-05-10T00:12:52;7.43;;;6.93;;
59770;SDS011;45649;53.014;6.600;2023-05-10T00:15:18;7.97;;;7.37;;
59770;SDS011;45649;53.014;6.600;2023-05-10T00:17:44;7.43;;;6.90;;
59770;SDS011;45649;53.014;6.600;2023-05-10T00:20:11;8.37;;;7.67;;
59770;SDS011;45649;53.014;6.600;2023-05-10T00:22:37;8.40;;;7.80;;
59770;SDS011;45649;53.014;6.600;2023-05-10T00:25:03;8.63;;;8.03;;
59770;SDS011;45649;53.014;6.600;2023-05-10T00:27:29;8.50;;;7.80;;
59770;SDS011;45649;53.014;6.600;2023-05-10T00:29:55;8.40;;;7.80;;
59770;SDS011;45649;53.014;6.600;2023-05-10T00:32:22;8.47;;;7.87;;
59770;SDS011;45649;53.014;6.600;2023-05-10T00:34:48;8.40;;;7.73;;
59770;SDS011;45649;53.014;6.600;2023-05-10T00:37:14;8.90;;;8.20;;
59770;SDS011;45649;53.014;6.600;2023-05-10T00:39:40;8.47;;;7.87;;
59770;SDS011;45649;53.014;6.600;2023-05-10T00:42:06;8.10;;;7.40;;
59770;SDS011;45649;53.014;6.600;2023-05-10T00:44:32;8.40;;;7.80;;
59770;SDS011;45649;53.014;6.600;2023-05-10T00:46:58;8.10;;;7.60;;
59770;SDS011;45649;53.014;6.600;2023-05-10T00:49:25;7.53;;;6.93;;
59770;SDS011;45649;53.014;6.600;2023-05-10T00:51:51;7.63;;;7.03;;
59770;SDS011;45649;53.014;6.600;2023-05-10T00:54:17;7.60;;;6.50;;
59770;SDS011;45649;53.014;6.600;2023-05-10T00:56:43;7.20;;;6.70;;
59770;SDS011;45649;53.014;6.600;2023-05-10T00:59:14;6.97;;;6.57;;
59770;SDS011;45649;53.014;6.600;2023-05-10T01:01:41;7.23;;;6.73;;
59770;SDS011;45649;53.014;6.600;2023-05-10T01:04:07;7.17;;;6.67;;
59770;SDS011;45649;53.014;6.600;2023-05-10T01:06:34;7.00;;;6.50;;
59770;SDS011;45649;53.014;6.600;2023-05-10T01:09:00;7.10;;;6.60;;
59770;SDS011;45649;53.014;6.600;2023-05-10T01:11:27;7.80;;;7.20;;
59770;SDS011;45649;53.014;6.600;2023-05-10T01:13:56;7.63;;;7.03;;
59770;SDS011;45649;53.014;6.600;2023-05-10T01:16:23;8.00;;;7.40;;
59770;SDS011;45649;53.014;6.600;2023-05-10T01:18:50;7.87;;;7.27;;
59770;SDS011;45649;53.014;6.600;2023-05-10T01:21:19;7.17;;;6.67;;
59770;SDS011;45649;53.014;6.600;2023-05-10T01:31:18;7.33;;;6.73;;
59770;SDS011;45649;53.014;6.600;2023-05-10T01:34:02;7.90;;;7.30;;
59770;SDS011;45649;53.014;6.600;2023-05-10T01:39:02;8.90;;;8.10;;
59770;SDS011;45649;53.014;6.600;2023-05-10T01:44:18;9.10;;;8.30;;
59770;SDS011;45649;53.014;6.600;2023-05-10T01:46:48;9.47;;;8.70;;
59770;SDS011;45649;53.014;6.600;2023-05-10T01:49:23;10.53;;;9.60;;
59770;SDS011;45649;53.014;6.600;2023-05-10T01:51:50;10.27;;;9.37;;
59770;SDS011;45649;53.014;6.600;2023-05-10T01:54:19;9.63;;;8.80;;
59770;SDS011;45649;53.014;6.600;2023-05-10T01:56:47;10.10;;;9.20;;
59770;SDS011;45649;53.014;6.600;2023-05-10T01:59:17;10.13;;;9.07;;
59770;SDS011;45649;53.014;6.600;2023-05-10T02:01:44;10.20;;;9.20;;
59770;SDS011;45649;53.014;6.600;2023-05-10T02:04:11;10.27;;;9.37;;
59770;SDS011;45649;53.014;6.600;2023-05-10T02:06:39;10.20;;;9.30;;
59770;SDS011;45649;53.014;6.600;2023-05-10T02:09:06;10.30;;;9.40;;
59770;SDS011;45649;53.014;6.600;2023-05-10T02:11:33;10.87;;;9.87;;
59770;SDS011;45649;53.014;6.600;2023-05-10T02:13:59;9.60;;;8.80;;
59770;SDS011;45649;53.014;6.600;2023-05-10T02:16:26;9.50;;;8.70;;
59770;SDS011;45649;53.014;6.600;2023-05-10T02:18:55;9.20;;;8.47;;
59770;SDS011;45649;53.014;6.600;2023-05-10T02:21:22;10.10;;;9.20;;
59770;SDS011;45649;53.014;6.600;2023-05-10T02:23:50;9.30;;;8.57;;
59770;SDS011;45649;53.014;6.600;2023-05-10T02:26:16;10.67;;;9.67;;
59770;SDS011;45649;53.014;6.600;2023-05-10T02:28:44;10.23;;;9.43;;
59770;SDS011;45649;53.014;6.600;2023-05-10T02:31:10;11.17;;;10.17;;
59770;SDS011;45649;53.014;6.600;2023-05-10T02:33:38;10.20;;;9.30;;
59770;SDS011;45649;53.014;6.600;2023-05-10T02:36:05;10.40;;;9.50;;
59770;SDS011;45649;53.014;6.600;2023-05-10T02:38:32;10.43;;;9.53;;
59770;SDS011;45649;53.014;6.600;2023-05-10T02:40:59;11.00;;;10.00;;
59770;SDS011;45649;53.014;6.600;2023-05-10T02:43:25;11.20;;;10.17;;
59770;SDS011;45649;53.014;6.600;2023-05-10T02:45:51;10.33;;;9.43;;
59770;SDS011;45649;53.014;6.600;2023-05-10T02:48:17;10.10;;;9.17;;
59770;SDS011;45649;53.014;6.600;2023-05-10T02:50:44;11.00;;;9.90;;
59770;SDS011;45649;53.014;6.600;2023-05-10T02:53:15;10.90;;;9.90;;
59770;SDS011;45649;53.014;6.600;2023-05-10T02:55:43;11.80;;;10.60;;
59770;SDS011;45649;53.014;6.600;2023-05-10T02:58:12;11.20;;;10.10;;
59770;SDS011;45649;53.014;6.600;2023-05-10T03:00:38;10.50;;;9.60;;
59770;SDS011;45649;53.014;6.600;2023-05-10T03:03:04;12.80;;;11.30;;
59770;SDS011;45649;53.014;6.600;2023-05-10T03:05:31;12.10;;;10.90;;
59770;SDS011;45649;53.014;6.600;2023-05-10T03:07:58;13.00;;;11.77;;
59770;SDS011;45649;53.014;6.600;2023-05-10T03:10:28;11.93;;;10.73;;
59770;SDS011;45649;53.014;6.600;2023-05-10T03:13:06;12.53;;;11.33;;
59770;SDS011;45649;53.014;6.600;2023-05-10T03:18:06;12.87;;;11.67;;
59770;SDS011;45649;53.014;6.600;2023-05-10T03:20:41;12.73;;;11.53;;
59770;SDS011;45649;53.014;6.600;2023-05-10T03:25:43;13.07;;;11.67;;
59770;SDS011;45649;53.014;6.600;2023-05-10T03:28:10;12.50;;;11.43;;
59770;SDS011;45649;53.014;6.600;2023-05-10T03:30:37;12.17;;;11.07;;
59770;SDS011;45649;53.014;6.600;2023-05-10T03:33:05;12.23;;;11.13;;
59770;SDS011;45649;53.014;6.600;2023-05-10T03:35:34;12.40;;;11.30;;
59770;SDS011;45649;53.014;6.600;2023-05-10T03:38:00;11.50;;;10.50;;
59770;SDS011;45649;53.014;6.600;2023-05-10T03:40:26;11.60;;;10.50;;
59770;SDS011;45649;53.014;6.600;2023-05-10T03:42:54;12.23;;;10.93;;
59770;SDS011;45649;53.014;6.600;2023-05-10T03:45:20;10.03;;;9.23;;
59770;SDS011;45649;53.014;6.600;2023-05-10T03:47:47;10.83;;;9.83;;
59770;SDS011;45649;53.014;6.600;2023-05-10T03:50:13;10.53;;;9.63;;
59770;SDS011;45649;53.014;6.600;2023-05-10T03:52:39;11.37;;;10.20;;
59770;SDS011;45649;53.014;6.600;2023-05-10T03:55:06;11.43;;;10.33;;
59770;SDS011;45649;53.014;6.600;2023-05-10T03:57:32;10.83;;;9.83;;
59770;SDS011;45649;53.014;6.600;2023-05-10T03:59:58;11.83;;;9.80;;
59770;SDS011;45649;53.014;6.600;2023-05-10T04:02:25;10.87;;;9.87;;
59770;SDS011;45649;53.014;6.600;2023-05-10T04:04:51;9.80;;;8.90;;
59770;SDS011;45649;53.014;6.600;2023-05-10T04:07:17;10.07;;;9.17;;
59770;SDS011;45649;53.014;6.600;2023-05-10T04:09:43;8.57;;;7.77;;
59770;SDS011;45649;53.014;6.600;2023-05-10T04:12:09;9.20;;;7.57;;
59770;SDS011;45649;53.014;6.600;2023-05-10T04:14:35;8.57;;;7.80;;
59770;SDS011;45649;53.014;6.600;2023-05-10T04:17:02;8.07;;;7.47;;
59770;SDS011;45649;53.014;6.600;2023-05-10T04:19:28;8.37;;;7.70;;
59770;SDS011;45649;53.014;6.600;2023-05-10T04:21:55;7.90;;;7.10;;
59770;SDS011;45649;53.014;6.600;2023-05-10T04:24:21;8.43;;;7.70;;
59770;SDS011;45649;53.014;6.600;2023-05-10T04:26:47;7.70;;;7.10;;
59770;SDS011;45649;53.014;6.600;2023-05-10T04:29:13;8.10;;;7.40;;
59770;SDS011;45649;53.014;6.600;2023-05-10T04:31:39;8.23;;;7.53;;
59770;SDS011;45649;53.014;6.600;2023-05-10T04:34:05;7.47;;;6.87;;
59770;SDS011;45649;53.014;6.600;2023-05-10T04:36:32;7.03;;;6.40;;
59770;SDS011;45649;53.014;6.600;2023-05-10T04:39:00;6.07;;;5.67;;
59770;SDS011;45649;53.014;6.600;2023-05-10T04:41:27;6.47;;;6.00;;
59770;SDS011;45649;53.014;6.600;2023-05-10T04:43:54;7.00;;;6.47;;
59770;SDS011;45649;53.014;6.600;2023-05-10T04:46:20;6.70;;;6.23;;
59770;SDS011;45649;53.014;6.600;2023-05-10T04:48:46;7.17;;;6.57;;
59770;SDS011;45649;53.014;6.600;2023-05-10T04:51:12;6.60;;;6.03;;
59770;SDS011;45649;53.014;6.600;2023-05-10T04:53:39;7.40;;;6.33;;
59770;SDS011;45649;53.014;6.600;2023-05-10T04:56:05;7.20;;;6.70;;
59770;SDS011;45649;53.014;6.600;2023-05-10T04:58:32;6.70;;;6.20;;
59770;SDS011;45649;53.014;6.600;2023-05-10T05:01:04;7.03;;;6.53;;
59770;SDS011;45649;53.014;6.600;2023-05-10T05:03:31;6.87;;;6.37;;
59770;SDS011;45649;53.014;6.600;2023-05-10T05:05:57;6.43;;;6.03;;
59770;SDS011;45649;53.014;6.600;2023-05-10T05:08:23;6.63;;;6.20;;
59770;SDS011;45649;53.014;6.600;2023-05-10T05:10:50;6.33;;;5.93;;
59770;SDS011;45649;53.014;6.600;2023-05-10T05:13:16;6.10;;;5.60;;
59770;SDS011;45649;53.014;6.600;2023-05-10T05:15:42;5.97;;;5.57;;
59770;SDS011;45649;53.014;6.600;2023-05-10T05:18:08;5.47;;;5.10;;
59770;SDS011;45649;53.014;6.600;2023-05-10T05:20:34;4.93;;;4.63;;
59770;SDS011;45649;53.014;6.600;2023-05-10T05:23:00;4.87;;;4.67;;
59770;SDS011;45649;53.014;6.600;2023-05-10T05:25:27;4.50;;;4.30;;
59770;SDS011;45649;53.014;6.600;2023-05-10T05:27:53;4.70;;;4.50;;
59770;SDS011;45649;53.014;6.600;2023-05-10T05:30:19;4.97;;;4.67;;
59770;SDS011;45649;53.014;6.600;2023-05-10T05:32:45;5.30;;;5.00;;
59770;SDS011;45649;53.014;6.600;2023-05-10T05:35:12;5.60;;;5.20;;
59770;SDS011;45649;53.014;6.600;2023-05-10T05:37:38;4.57;;;4.27;;
59770;SDS011;45649;53.014;6.600;2023-05-10T05:40:04;4.60;;;4.40;;
59770;SDS011;45649;53.014;6.600;2023-05-10T05:42:31;5.17;;;4.87;;
59770;SDS011;45649;53.014;6.600;2023-05-10T05:44:57;4.60;;;4.40;;
59770;SDS011;45649;53.014;6.600;2023-05-10T05:47:24;4.63;;;4.40;;
59770;SDS011;45649;53.014;6.600;2023-05-10T05:49:50;4.80;;;4.40;;
59770;SDS011;45649;53.014;6.600;2023-05-10T05:52:16;4.30;;;4.10;;
59770;SDS011;45649;53.014;6.600;2023-05-10T05:54:42;5.20;;;4.80;;
59770;SDS011;45649;53.014;6.600;2023-05-10T05:57:08;4.33;;;4.03;;
59770;SDS011;45649;53.014;6.600;2023-05-10T05:59:35;4.40;;;4.10;;
59770;SDS011;45649;53.014;6.600;2023-05-10T06:02:01;3.83;;;3.63;;
59770;SDS011;45649;53.014;6.600;2023-05-10T06:04:27;3.40;;;3.20;;
59770;SDS011;45649;53.014;6.600;2023-05-10T06:06:53;3.70;;;3.50;;
59770;SDS011;45649;53.014;6.600;2023-05-10T06:09:19;3.70;;;3.50;;
59770;SDS011;45649;53.014;6.600;2023-05-10T06:11:47;3.80;;;3.60;;
59770;SDS011;45649;53.014;6.600;2023-05-10T06:14:13;3.87;;;3.67;;
59770;SDS011;45649;53.014;6.600;2023-05-10T06:16:39;3.30;;;3.17;;
59770;SDS011;45649;53.014;6.600;2023-05-10T06:19:05;3.27;;;3.17;;
59770;SDS011;45649;53.014;6.600;2023-05-10T06:21:31;3.00;;;2.90;;
59770;SDS011;45649;53.014;6.600;2023-05-10T06:23:57;2.80;;;2.70;;
59770;SDS011;45649;53.014;6.600;2023-05-10T06:26:24;3.03;;;2.93;;
59770;SDS011;45649;53.014;6.600;2023-05-10T06:28:50;2.53;;;2.43;;
59770;SDS011;45649;53.014;6.600;2023-05-10T06:31:16;2.20;;;2.10;;
59770;SDS011;45649;53.014;6.600;2023-05-10T06:33:42;3.00;;;2.90;;
59770;SDS011;45649;53.014;6.600;2023-05-10T06:36:08;2.30;;;2.20;;
59770;SDS011;45649;53.014;6.600;2023-05-10T06:38:34;1.70;;;1.70;;
59770;SDS011;45649;53.014;6.600;2023-05-10T06:41:01;1.30;;;1.30;;
59770;SDS011;45649;53.014;6.600;2023-05-10T06:43:27;1.17;;;1.17;;
59770;SDS011;45649;53.014;6.600;2023-05-10T06:45:53;1.00;;;1.00;;
59770;SDS011;45649;53.014;6.600;2023-05-10T06:48:19;0.70;;;0.70;;
59770;SDS011;45649;53.014;6.600;2023-05-10T06:50:46;0.80;;;0.80;;
59770;SDS011;45649;53.014;6.600;2023-05-10T06:53:12;0.63;;;0.63;;
59770;SDS011;45649;53.014;6.600;2023-05-10T06:55:38;0.60;;;0.60;;
59770;SDS011;45649;53.014;6.600;2023-05-10T06:58:04;0.63;;;0.63;;
59770;SDS011;45649;53.014;6.600;2023-05-10T07:00:31;0.60;;;0.60;;
59770;SDS011;45649;53.014;6.600;2023-05-10T07:02:57;0.40;;;0.40;;
59770;SDS011;45649;53.014;6.600;2023-05-10T07:05:23;0.83;;;0.60;;
59770;SDS011;45649;53.014;6.600;2023-05-10T07:07:49;0.50;;;0.50;;
59770;SDS011;45649;53.014;6.600;2023-05-10T07:10:16;0.60;;;0.60;;
59770;SDS011;45649;53.014;6.600;2023-05-10T07:12:42;0.40;;;0.40;;
59770;SDS011;45649;53.014;6.600;2023-05-10T07:15:08;0.43;;;0.40;;
59770;SDS011;45649;53.014;6.600;2023-05-10T07:17:35;0.40;;;0.40;;
59770;SDS011;45649;53.014;6.600;2023-05-10T07:20:01;0.63;;;0.50;;
59770;SDS011;45649;53.014;6.600;2023-05-10T07:22:28;0.40;;;0.40;;
59770;SDS011;45649;53.014;6.600;2023-05-10T07:24:55;0.33;;;0.33;;
59770;SDS011;45649;53.014;6.600;2023-05-10T07:27:21;0.40;;;0.40;;
59770;SDS011;45649;53.014;6.600;2023-05-10T07:29:49;0.40;;;0.40;;
59770;SDS011;45649;53.014;6.600;2023-05-10T07:32:15;0.40;;;0.40;;
59770;SDS011;45649;53.014;6.600;2023-05-10T07:34:42;0.50;;;0.50;;
59770;SDS011;45649;53.014;6.600;2023-05-10T07:37:08;0.60;;;0.57;;
59770;SDS011;45649;53.014;6.600;2023-05-10T07:39:34;0.60;;;0.60;;
59770;SDS011;45649;53.014;6.600;2023-05-10T07:42:00;0.50;;;0.50;;
59770;SDS011;45649;53.014;6.600;2023-05-10T07:44:26;0.57;;;0.57;;
59770;SDS011;45649;53.014;6.600;2023-05-10T07:46:52;0.70;;;0.70;;
59770;SDS011;45649;53.014;6.600;2023-05-10T07:49:19;1.20;;;1.20;;
59770;SDS011;45649;53.014;6.600;2023-05-10T07:51:45;1.13;;;1.13;;
59770;SDS011;45649;53.014;6.600;2023-05-10T07:54:11;1.40;;;1.40;;
59770;SDS011;45649;53.014;6.600;2023-05-10T07:56:37;1.70;;;1.60;;
59770;SDS011;45649;53.014;6.600;2023-05-10T07:59:04;1.50;;;1.50;;
59770;SDS011;45649;53.014;6.600;2023-05-10T08:01:32;1.37;;;1.37;;
59770;SDS011;45649;53.014;6.600;2023-05-10T08:03:58;1.40;;;1.40;;
59770;SDS011;45649;53.014;6.600;2023-05-10T08:06:25;1.80;;;1.70;;
59770;SDS011;45649;53.014;6.600;2023-05-10T08:08:54;1.80;;;1.70;;
59770;SDS011;45649;53.014;6.600;2023-05-10T08:11:21;1.83;;;1.77;;
59770;SDS011;45649;53.014;6.600;2023-05-10T08:13:47;2.00;;;1.90;;
59770;SDS011;45649;53.014;6.600;2023-05-10T08:16:15;2.27;;;2.10;;
59770;SDS011;45649;53.014;6.600;2023-05-10T08:18:42;1.50;;;1.50;;
59770;SDS011;45649;53.014;6.600;2023-05-10T08:21:08;2.10;;;2.00;;
59770;SDS011;45649;53.014;6.600;2023-05-10T08:23:36;1.97;;;1.87;;
59770;SDS011;45649;53.014;6.600;2023-05-10T08:26:02;1.90;;;1.80;;
59770;SDS011;45649;53.014;6.600;2023-05-10T08:28:28;1.90;;;1.80;;
59770;SDS011;45649;53.014;6.600;2023-05-10T08:30:55;1.97;;;1.87;;
59770;SDS011;45649;53.014;6.600;2023-05-10T08:33:21;2.60;;;2.40;;
59770;SDS011;45649;53.014;6.600;2023-05-10T08:35:47;2.10;;;2.00;;
59770;SDS011;45649;53.014;6.600;2023-05-10T08:38:13;2.17;;;2.07;;
59770;SDS011;45649;53.014;6.600;2023-05-10T08:40:43;2.43;;;2.33;;
59770;SDS011;45649;53.014;6.600;2023-05-10T08:43:10;2.63;;;2.53;;
59770;SDS011;45649;53.014;6.600;2023-05-10T08:45:37;2.40;;;2.30;;
59770;SDS011;45649;53.014;6.600;2023-05-10T08:48:07;2.20;;;2.10;;
59770;SDS011;45649;53.014;6.600;2023-05-10T08:50:37;2.20;;;2.10;;
59770;SDS011;45649;53.014;6.600;2023-05-10T08:53:05;2.10;;;2.00;;
59770;SDS011;45649;53.014;6.600;2023-05-10T08:55:32;2.50;;;2.40;;
59770;SDS011;45649;53.014;6.600;2023-05-10T08:57:59;2.53;;;2.43;;
59770;SDS011;45649;53.014;6.600;2023-05-10T09:00:25;3.00;;;2.73;;
59770;SDS011;45649;53.014;6.600;2023-05-10T09:02:52;2.70;;;2.60;;
59770;SDS011;45649;53.014;6.600;2023-05-10T09:05:18;2.97;;;2.73;;
59770;SDS011;45649;53.014;6.600;2023-05-10T09:07:44;2.90;;;2.80;;
59770;SDS011;45649;53.014;6.600;2023-05-10T09:10:10;2.50;;;2.40;;
59770;SDS011;45649;53.014;6.600;2023-05-10T09:12:37;2.70;;;2.50;;
59770;SDS011;45649;53.014;6.600;2023-05-10T09:15:03;3.00;;;2.80;;
59770;SDS011;45649;53.014;6.600;2023-05-10T09:17:30;2.53;;;2.43;;
59770;SDS011;45649;53.014;6.600;2023-05-10T09:19:59;2.93;;;2.77;;
59770;SDS011;45649;53.014;6.600;2023-05-10T09:22:26;2.73;;;2.53;;
59770;SDS011;45649;53.014;6.600;2023-05-10T09:27:30;2.93;;;2.73;;
59770;SDS011;45649;53.014;6.600;2023-05-10T09:29:56;2.57;;;2.47;;
59770;SDS011;45649;53.014;6.600;2023-05-10T09:32:35;2.60;;;2.50;;
59770;SDS011;45649;53.014;6.600;2023-05-10T09:37:40;3.17;;;2.97;;
59770;SDS011;45649;53.014;6.600;2023-05-10T09:40:16;3.67;;;3.47;;
59770;SDS011;45649;53.014;6.600;2023-05-10T09:42:50;4.23;;;3.83;;
59770;SDS011;45649;53.014;6.600;2023-05-10T09:45:16;3.43;;;3.23;;
59770;SDS011;45649;53.014;6.600;2023-05-10T09:47:42;4.30;;;3.90;;
59770;SDS011;45649;53.014;6.600;2023-05-10T09:50:09;3.40;;;3.20;;
59770;SDS011;45649;53.014;6.600;2023-05-10T09:55:13;4.47;;;4.07;;
59770;SDS011;45649;53.014;6.600;2023-05-10T09:57:39;3.30;;;3.00;;
59770;SDS011;45649;53.014;6.600;2023-05-10T10:00:06;3.70;;;3.50;;
59770;SDS011;45649;53.014;6.600;2023-05-10T10:02:32;5.10;;;4.70;;
59770;SDS011;45649;53.014;6.600;2023-05-10T10:05:00;5.07;;;4.50;;
59770;SDS011;45649;53.014;6.600;2023-05-10T10:07:28;4.50;;;4.10;;
59770;SDS011;45649;53.014;6.600;2023-05-10T10:09:54;6.30;;;5.70;;
59770;SDS011;45649;53.014;6.600;2023-05-10T10:12:20;4.40;;;4.13;;
59770;SDS011;45649;53.014;6.600;2023-05-10T10:14:47;5.33;;;4.83;;
59770;SDS011;45649;53.014;6.600;2023-05-10T10:17:15;7.10;;;5.90;;
59770;SDS011;45649;53.014;6.600;2023-05-10T10:19:41;5.50;;;5.07;;
59770;SDS011;45649;53.014;6.600;2023-05-10T10:22:07;5.90;;;5.40;;
59770;SDS011;45649;53.014;6.600;2023-05-10T10:24:36;6.97;;;6.13;;
59770;SDS011;45649;53.014;6.600;2023-05-10T10:27:07;5.77;;;5.00;;
59770;SDS011;45649;53.014;6.600;2023-05-10T10:29:36;6.43;;;5.90;;
59770;SDS011;45649;53.014;6.600;2023-05-10T10:32:10;6.70;;;6.00;;
59770;SDS011;45649;53.014;6.600;2023-05-10T10:34:38;6.50;;;5.90;;
59770;SDS011;45649;53.014;6.600;2023-05-10T10:37:05;5.70;;;5.27;;
59770;SDS011;45649;53.014;6.600;2023-05-10T10:39:31;5.63;;;4.97;;
59770;SDS011;45649;53.014;6.600;2023-05-10T10:41:58;5.93;;;5.47;;
59770;SDS011;45649;53.014;6.600;2023-05-10T10:44:34;6.23;;;5.63;;
59770;SDS011;45649;53.014;6.600;2023-05-10T10:50:05;6.33;;;5.80;;
59770;SDS011;45649;53.014;6.600;2023-05-10T10:52:42;5.93;;;5.43;;
59770;SDS011;45649;53.014;6.600;2023-05-10T10:55:17;6.33;;;5.83;;
59770;SDS011;45649;53.014;6.600;2023-05-10T10:57:47;6.70;;;6.13;;
59770;SDS011;45649;53.014;6.600;2023-05-10T11:00:17;6.87;;;6.23;;
59770;SDS011;45649;53.014;6.600;2023-05-10T11:02:44;5.87;;;5.37;;
59770;SDS011;45649;53.014;6.600;2023-05-10T11:07:55;6.03;;;5.53;;
59770;SDS011;45649;53.014;6.600;2023-05-10T11:10:21;5.47;;;5.03;;
59770;SDS011;45649;53.014;6.600;2023-05-10T11:12:51;6.57;;;5.97;;
59770;SDS011;45649;53.014;6.600;2023-05-10T11:15:19;6.20;;;5.70;;
59770;SDS011;45649;53.014;6.600;2023-05-10T11:17:47;5.80;;;5.20;;
59770;SDS011;45649;53.014;6.600;2023-05-10T11:20:17;6.20;;;5.60;;
59770;SDS011;45649;53.014;6.600;2023-05-10T11:22:54;6.63;;;5.77;;
59770;SDS011;45649;53.014;6.600;2023-05-10T11:25:26;6.57;;;5.97;;
59770;SDS011;45649;53.014;6.600;2023-05-10T11:27:53;6.30;;;5.73;;
59770;SDS011;45649;53.014;6.600;2023-05-10T11:30:19;6.27;;;5.77;;
59770;SDS011;45649;53.014;6.600;2023-05-10T11:32:45;7.63;;;6.20;;
59770;SDS011;45649;53.014;6.600;2023-05-10T11:35:11;6.63;;;6.03;;
59770;SDS011;45649;53.014;6.600;2023-05-10T11:37:41;7.57;;;6.37;;
59770;SDS011;45649;53.014;6.600;2023-05-10T11:40:09;8.20;;;6.43;;
59770;SDS011;45649;53.014;6.600;2023-05-10T11:42:38;5.97;;;5.47;;
59770;SDS011;45649;53.014;6.600;2023-05-10T11:45:05;7.57;;;6.73;;
59770;SDS011;45649;53.014;6.600;2023-05-10T11:47:31;5.80;;;5.27;;
59770;SDS011;45649;53.014;6.600;2023-05-10T11:49:57;5.43;;;4.70;;
59770;SDS011;45649;53.014;6.600;2023-05-10T11:52:23;5.27;;;4.77;;
59770;SDS011;45649;53.014;6.600;2023-05-10T11:54:53;4.53;;;4.17;;
59770;SDS011;45649;53.014;6.600;2023-05-10T11:57:20;5.40;;;4.90;;
59770;SDS011;45649;53.014;6.600;2023-05-10T11:59:46;5.40;;;4.90;;
59770;SDS011;45649;53.014;6.600;2023-05-10T12:02:16;5.00;;;4.60;;
59770;SDS011;45649;53.014;6.600;2023-05-10T12:04:42;5.77;;;5.27;;
59770;SDS011;45649;53.014;6.600;2023-05-10T12:07:08;6.37;;;5.53;;
59770;SDS011;45649;53.014;6.600;2023-05-10T12:09:34;9.13;;;5.63;;
59770;SDS011;45649;53.014;6.600;2023-05-10T12:12:01;5.70;;;5.20;;
59770;SDS011;45649;53.014;6.600;2023-05-10T12:14:28;7.20;;;6.53;;
59770;SDS011;45649;53.014;6.600;2023-05-10T12:16:58;5.70;;;5.20;;
59770;SDS011;45649;53.014;6.600;2023-05-10T12:19:24;5.63;;;5.13;;
59770;SDS011;45649;53.014;6.600;2023-05-10T12:21:50;5.30;;;4.90;;
59770;SDS011;45649;53.014;6.600;2023-05-10T12:24:16;6.40;;;5.80;;
59770;SDS011;45649;53.014;6.600;2023-05-10T12:26:44;6.50;;;5.90;;
59770;SDS011;45649;53.014;6.600;2023-05-10T12:29:17;6.90;;;6.30;;
59770;SDS011;45649;53.014;6.600;2023-05-10T12:31:56;7.47;;;6.30;;
59770;SDS011;45649;53.014;6.600;2023-05-10T12:34:23;6.17;;;5.67;;
59770;SDS011;45649;53.014;6.600;2023-05-10T12:36:51;7.27;;;6.57;;
59770;SDS011;45649;53.014;6.600;2023-05-10T12:39:17;6.80;;;6.17;;
59770;SDS011;45649;53.014;6.600;2023-05-10T12:41:43;6.90;;;6.30;;
59770;SDS011;45649;53.014;6.600;2023-05-10T12:44:10;7.80;;;6.73;;
59770;SDS011;45649;53.014;6.600;2023-05-10T12:46:36;7.40;;;6.70;;
59770;SDS011;45649;53.014;6.600;2023-05-10T12:49:02;7.77;;;6.93;;
59770;SDS011;45649;53.014;6.600;2023-05-10T12:51:28;8.03;;;7.33;;
59770;SDS011;45649;53.014;6.600;2023-05-10T12:53:55;7.57;;;6.87;;
59770;SDS011;45649;53.014;6.600;2023-05-10T12:56:22;9.53;;;6.67;;
59770;SDS011;45649;53.014;6.600;2023-05-10T12:58:48;8.00;;;7.17;;
59770;SDS011;45649;53.014;6.600;2023-05-10T13:01:14;7.97;;;7.20;;
59770;SDS011;45649;53.014;6.600;2023-05-10T13:03:40;6.77;;;6.17;;
59770;SDS011;45649;53.014;6.600;2023-05-10T13:06:08;7.60;;;6.70;;
59770;SDS011;45649;53.014;6.600;2023-05-10T13:08:34;6.83;;;6.20;;
59770;SDS011;45649;53.014;6.600;2023-05-10T13:11:01;8.00;;;7.20;;
59770;SDS011;45649;53.014;6.600;2023-05-10T13:13:27;7.93;;;6.57;;
59770;SDS011;45649;53.014;6.600;2023-05-10T13:15:53;6.70;;;6.10;;
59770;SDS011;45649;53.014;6.600;2023-05-10T13:18:19;6.50;;;5.90;;
59770;SDS011;45649;53.014;6.600;2023-05-10T13:20:45;7.63;;;6.93;;
59770;SDS011;45649;53.014;6.600;2023-05-10T13:23:11;11.27;;;7.40;;
59770;SDS011;45649;53.014;6.600;2023-05-10T13:25:38;6.63;;;5.97;;
59770;SDS011;45649;53.014;6.600;2023-05-10T13:28:04;7.70;;;6.73;;
59770;SDS011;45649;53.014;6.600;2023-05-10T13:30:30;7.80;;;6.37;;
59770;SDS011;45649;53.014;6.600;2023-05-10T13:32:56;7.57;;;6.77;;
59770;SDS011;45649;53.014;6.600;2023-05-10T13:35:23;7.77;;;6.47;;
59770;SDS011;45649;53.014;6.600;2023-05-10T13:37:49;6.87;;;6.10;;
59770;SDS011;45649;53.014;6.600;2023-05-10T13:40:15;6.73;;;6.10;;
59770;SDS011;45649;53.014;6.600;2023-05-10T13:42:41;7.30;;;6.60;;
59770;SDS011;45649;53.014;6.600;2023-05-10T13:45:08;6.63;;;5.87;;
59770;SDS011;45649;53.014;6.600;2023-05-10T13:47:34;6.93;;;6.33;;
59770;SDS011;45649;53.014;6.600;2023-05-10T13:50:01;7.60;;;6.90;;
59770;SDS011;45649;53.014;6.600;2023-05-10T13:52:28;7.93;;;7.13;;
59770;SDS011;45649;53.014;6.600;2023-05-10T13:54:54;6.70;;;6.00;;
59770;SDS011;45649;53.014;6.600;2023-05-10T13:57:21;7.93;;;7.13;;
59770;SDS011;45649;53.014;6.600;2023-05-10T13:59:48;8.10;;;7.40;;
59770;SDS011;45649;53.014;6.600;2023-05-10T14:02:14;8.50;;;7.70;;
59770;SDS011;45649;53.014;6.600;2023-05-10T14:04:40;7.10;;;6.50;;
59770;SDS011;45649;53.014;6.600;2023-05-10T14:07:07;8.47;;;7.57;;
59770;SDS011;45649;53.014;6.600;2023-05-10T14:09:33;8.60;;;7.70;;
59770;SDS011;45649;53.014;6.600;2023-05-10T14:11:59;10.87;;;7.93;;
59770;SDS011;45649;53.014;6.600;2023-05-10T14:14:25;8.90;;;8.00;;
59770;SDS011;45649;53.014;6.600;2023-05-10T14:16:51;10.83;;;8.00;;
59770;SDS011;45649;53.014;6.600;2023-05-10T14:19:20;6.33;;;5.77;;
59770;SDS011;45649;53.014;6.600;2023-05-10T14:21:46;6.47;;;5.50;;
59770;SDS011;45649;53.014;6.600;2023-05-10T14:24:12;6.70;;;6.00;;
59770;SDS011;45649;53.014;6.600;2023-05-10T14:26:38;6.93;;;6.23;;
59770;SDS011;45649;53.014;6.600;2023-05-10T14:29:05;7.88;;;7.07;;
59770;SDS011;45649;53.014;6.600;2023-05-10T14:31:31;6.80;;;6.20;;
59770;SDS011;45649;53.014;6.600;2023-05-10T14:33:57;6.37;;;5.73;;
59770;SDS011;45649;53.014;6.600;2023-05-10T14:36:24;8.60;;;7.10;;
59770;SDS011;45649;53.014;6.600;2023-05-10T14:38:50;8.10;;;7.00;;
59770;SDS011;45649;53.014;6.600;2023-05-10T14:41:17;7.67;;;6.87;;
59770;SDS011;45649;53.014;6.600;2023-05-10T14:43:43;9.17;;;6.53;;
59770;SDS011;45649;53.014;6.600;2023-05-10T14:46:09;6.83;;;6.17;;
59770;SDS011;45649;53.014;6.600;2023-05-10T14:48:36;7.60;;;6.70;;
59770;SDS011;45649;53.014;6.600;2023-05-10T14:51:02;7.90;;;6.90;;
59770;SDS011;45649;53.014;6.600;2023-05-10T14:53:28;7.40;;;6.80;;
59770;SDS011;45649;53.014;6.600;2023-05-10T14:55:55;7.30;;;6.60;;
59770;SDS011;45649;53.014;6.600;2023-05-10T14:58:21;7.07;;;6.27;;
59770;SDS011;45649;53.014;6.600;2023-05-10T15:00:47;7.23;;;6.47;;
59770;SDS011;45649;53.014;6.600;2023-05-10T15:03:13;9.40;;;7.43;;
59770;SDS011;45649;53.014;6.600;2023-05-10T15:05:40;7.03;;;6.40;;
59770;SDS011;45649;53.014;6.600;2023-05-10T15:08:06;7.40;;;6.60;;
59770;SDS011;45649;53.014;6.600;2023-05-10T15:10:34;7.23;;;6.53;;
59770;SDS011;45649;53.014;6.600;2023-05-10T15:13:00;7.13;;;6.53;;
59770;SDS011;45649;53.014;6.600;2023-05-10T15:15:26;6.33;;;5.73;;